Goshen, OH (45122)

8:53 PM EST on February 22, 2017 (GMT -0500)
OH65 - Goshen | | Change Station

Elev 879 ft 39.24 °N, 84.10 °W | Updated 28 seconds ago

Overcast
Overcast
58.0 °F
Feels Like 58.0 °F
N
3.9
Wind Variable Wind from ESE
Gusts 4.6 mph

Today
High -- | Low -- °F
--% Chance of Precip.
Yesterday
High -- | Low -- °F
Precip. -- in
Pressure 29.83 in
Visibility 10.0 miles
Clouds Overcast 3600 ft
Dew Point 56 °F
Humidity 92%
Rainfall 0.05 in
Snow Depth Not available.
7:18 AM 6:21 PM
Waning Crescent, 13% visible
METAR KI69 230134Z AUTO 00000KT 10SM OVC036 16/14 A2983 RMK AO2 P0001 T01560142
Pressure 29.83 in
Visibility 10.0 miles
Clouds Overcast 3600 ft
Dew Point 56 °F
Humidity 92%
Rainfall 0.05 in
Snow Depth Not available.
7:18 AM 6:21 PM
Waning Crescent, 13% visible
METAR KI69 230134Z AUTO 00000KT 10SM OVC036 16/14 A2983 RMK AO2 P0001 T01560142

Get Your Daily Forecast Email!

Thanks for signing up!

Be on the lookout for a verification email in your inbox.

You'll start receiving the daily forecast at 8 AM.

×

10-Day Weather Forecast

Almanac

Astronomy

Feb. 22, 2017 Rise Set
Actual Time
Civil Twilight
Nautical Twilight
Astronomical Twilight
Moon
Length of Visible Light
Length of Day
Tomorrow will be .
, % of the Moon is Illuminated

Today's Extremes

State Highs State Lows

Community

WunderPhotos

Upload Photos

1,962,540 photos uploaded!

WunderBlog® & News

Nearby

Air Quality

  Air Quality AQ Index Pollutant
Not available.

Snow Depth

Station Depth Elevation

Earthquake Activity

City Distance Mag. Time & Date
Minimum magnitude displayed is 2.5.

Coastal Water Temperatures

Place Temperature

Stations

Nearby Weather Stations

Station Location Temp. Windchill Dew Point Humidity Wind Precip. Elev Updated Type
                   

Watches & Warnings

There are currently no watches in effect.